Bedford Park, Illinois
Current Conditions -  °F | °C
As of 3:25 AM on Friday 31 Oct 2014 (Local Time) from KMDW Reporting Station
Overcast Overcast  
Wind Chill:   Ceiling: 2600
Heat Index:   Visibility: 10mi
Dew Point:   Wind: 17mph
Humidity: 63%   Direction: 330°NNW
Pressure: 30.03"   Gusts: NA
Location:  41.76°N, 87.8°W
Report Text: KMDW 310825Z 33015KT 10SM BKN026 OVC031 08/01 A3003 RMK AO2 PK WND 33030/0810 RAE24 P0000 T00780011
Loading
Personal Weather Stations






























Interactive Weather Map
Tropical Storm Tracking
New forecast layout! Learn more

10-Day Weather Forecast

Advertisements
Track Severe Weather on mobile